sensor_id;sensor_type;location;lat;lon;timestamp;P1;durP1;ratioP1;P2;durP2;ratioP2
42294;SDS011;27947;47.556;18.718;2023-06-10T00:01:58;13.77;;;6.45;;
42294;SDS011;27947;47.556;18.718;2023-06-10T00:04:25;8.80;;;5.88;;
42294;SDS011;27947;47.556;18.718;2023-06-10T00:06:50;10.82;;;5.88;;
42294;SDS011;27947;47.556;18.718;2023-06-10T00:09:15;7.15;;;5.60;;
42294;SDS011;27947;47.556;18.718;2023-06-10T00:11:41;7.70;;;5.85;;
42294;SDS011;27947;47.556;18.718;2023-06-10T00:14:07;9.68;;;6.30;;
42294;SDS011;27947;47.556;18.718;2023-06-10T00:16:32;10.40;;;5.97;;
42294;SDS011;27947;47.556;18.718;2023-06-10T00:19:01;6.95;;;5.13;;
42294;SDS011;27947;47.556;18.718;2023-06-10T00:21:28;9.35;;;5.03;;
42294;SDS011;27947;47.556;18.718;2023-06-10T00:23:53;7.32;;;5.57;;
42294;SDS011;27947;47.556;18.718;2023-06-10T00:26:20;6.38;;;5.20;;
42294;SDS011;27947;47.556;18.718;2023-06-10T00:28:47;10.73;;;5.43;;
42294;SDS011;27947;47.556;18.718;2023-06-10T00:31:12;8.30;;;5.47;;
42294;SDS011;27947;47.556;18.718;2023-06-10T00:33:38;14.25;;;6.30;;
42294;SDS011;27947;47.556;18.718;2023-06-10T00:36:03;11.93;;;6.47;;
42294;SDS011;27947;47.556;18.718;2023-06-10T00:38:28;11.50;;;6.30;;
42294;SDS011;27947;47.556;18.718;2023-06-10T00:40:54;18.98;;;6.22;;
42294;SDS011;27947;47.556;18.718;2023-06-10T00:43:19;14.38;;;6.05;;
42294;SDS011;27947;47.556;18.718;2023-06-10T00:45:45;11.65;;;6.35;;
42294;SDS011;27947;47.556;18.718;2023-06-10T00:48:11;8.27;;;5.90;;
42294;SDS011;27947;47.556;18.718;2023-06-10T00:50:36;7.60;;;6.15;;
42294;SDS011;27947;47.556;18.718;2023-06-10T00:53:04;10.95;;;7.25;;
42294;SDS011;27947;47.556;18.718;2023-06-10T00:55:30;9.52;;;6.80;;
42294;SDS011;27947;47.556;18.718;2023-06-10T00:57:57;12.07;;;6.82;;
42294;SDS011;27947;47.556;18.718;2023-06-10T01:00:23;8.68;;;6.78;;
42294;SDS011;27947;47.556;18.718;2023-06-10T01:02:48;11.48;;;7.18;;
42294;SDS011;27947;47.556;18.718;2023-06-10T01:05:14;13.80;;;7.15;;
42294;SDS011;27947;47.556;18.718;2023-06-10T01:07:41;9.35;;;6.55;;
42294;SDS011;27947;47.556;18.718;2023-06-10T01:10:19;12.73;;;7.00;;
42294;SDS011;27947;47.556;18.718;2023-06-10T01:15:29;12.15;;;7.68;;
42294;SDS011;27947;47.556;18.718;2023-06-10T01:17:56;10.38;;;7.40;;
42294;SDS011;27947;47.556;18.718;2023-06-10T01:20:23;11.00;;;7.40;;
42294;SDS011;27947;47.556;18.718;2023-06-10T01:22:49;9.10;;;6.60;;
42294;SDS011;27947;47.556;18.718;2023-06-10T01:25:17;7.70;;;6.10;;
42294;SDS011;27947;47.556;18.718;2023-06-10T01:27:44;14.10;;;6.07;;
42294;SDS011;27947;47.556;18.718;2023-06-10T01:30:11;9.52;;;6.25;;
42294;SDS011;27947;47.556;18.718;2023-06-10T01:32:40;9.63;;;5.68;;
42294;SDS011;27947;47.556;18.718;2023-06-10T01:35:08;9.50;;;6.03;;
42294;SDS011;27947;47.556;18.718;2023-06-10T01:37:36;9.52;;;6.68;;
42294;SDS011;27947;47.556;18.718;2023-06-10T01:40:02;8.98;;;6.32;;
42294;SDS011;27947;47.556;18.718;2023-06-10T01:42:31;7.15;;;6.45;;
42294;SDS011;27947;47.556;18.718;2023-06-10T01:44:57;9.45;;;6.35;;
42294;SDS011;27947;47.556;18.718;2023-06-10T01:47:24;9.32;;;6.35;;
42294;SDS011;27947;47.556;18.718;2023-06-10T01:49:49;13.48;;;8.23;;
42294;SDS011;27947;47.556;18.718;2023-06-10T01:52:15;15.02;;;9.43;;
42294;SDS011;27947;47.556;18.718;2023-06-10T01:54:40;13.15;;;8.85;;
42294;SDS011;27947;47.556;18.718;2023-06-10T01:57:06;13.88;;;8.88;;
42294;SDS011;27947;47.556;18.718;2023-06-10T01:59:31;10.57;;;8.85;;
42294;SDS011;27947;47.556;18.718;2023-06-10T02:01:57;12.05;;;9.30;;
42294;SDS011;27947;47.556;18.718;2023-06-10T02:04:22;13.32;;;9.30;;
42294;SDS011;27947;47.556;18.718;2023-06-10T02:06:48;12.43;;;8.82;;
42294;SDS011;27947;47.556;18.718;2023-06-10T02:09:13;14.18;;;8.63;;
42294;SDS011;27947;47.556;18.718;2023-06-10T02:11:38;12.88;;;8.40;;
42294;SDS011;27947;47.556;18.718;2023-06-10T02:14:04;13.30;;;9.13;;
42294;SDS011;27947;47.556;18.718;2023-06-10T02:16:29;11.30;;;8.63;;
42294;SDS011;27947;47.556;18.718;2023-06-10T02:18:55;13.95;;;10.02;;
42294;SDS011;27947;47.556;18.718;2023-06-10T02:21:21;14.00;;;9.70;;
42294;SDS011;27947;47.556;18.718;2023-06-10T02:23:46;11.43;;;8.82;;
42294;SDS011;27947;47.556;18.718;2023-06-10T02:26:12;13.95;;;9.95;;
42294;SDS011;27947;47.556;18.718;2023-06-10T02:28:37;15.27;;;9.23;;
42294;SDS011;27947;47.556;18.718;2023-06-10T02:31:03;12.88;;;9.50;;
42294;SDS011;27947;47.556;18.718;2023-06-10T02:33:28;19.17;;;9.68;;
42294;SDS011;27947;47.556;18.718;2023-06-10T02:35:54;13.30;;;9.13;;
42294;SDS011;27947;47.556;18.718;2023-06-10T02:38:21;15.38;;;9.35;;
42294;SDS011;27947;47.556;18.718;2023-06-10T02:40:47;12.02;;;9.60;;
42294;SDS011;27947;47.556;18.718;2023-06-10T02:43:12;12.90;;;9.18;;
42294;SDS011;27947;47.556;18.718;2023-06-10T02:45:38;15.15;;;9.07;;
42294;SDS011;27947;47.556;18.718;2023-06-10T02:48:05;13.25;;;9.05;;
42294;SDS011;27947;47.556;18.718;2023-06-10T02:50:32;13.63;;;8.93;;
42294;SDS011;27947;47.556;18.718;2023-06-10T02:53:20;11.00;;;8.77;;
42294;SDS011;27947;47.556;18.718;2023-06-10T02:55:51;12.63;;;9.50;;
42294;SDS011;27947;47.556;18.718;2023-06-10T02:58:18;14.07;;;10.35;;
42294;SDS011;27947;47.556;18.718;2023-06-10T03:00:44;12.23;;;9.70;;
42294;SDS011;27947;47.556;18.718;2023-06-10T03:03:11;13.52;;;10.15;;
42294;SDS011;27947;47.556;18.718;2023-06-10T03:05:44;13.95;;;9.70;;
42294;SDS011;27947;47.556;18.718;2023-06-10T03:08:10;15.02;;;10.13;;
42294;SDS011;27947;47.556;18.718;2023-06-10T03:10:39;15.63;;;10.05;;
42294;SDS011;27947;47.556;18.718;2023-06-10T03:13:06;16.58;;;9.98;;
42294;SDS011;27947;47.556;18.718;2023-06-10T03:15:31;16.35;;;10.23;;
42294;SDS011;27947;47.556;18.718;2023-06-10T03:17:59;13.13;;;9.73;;
42294;SDS011;27947;47.556;18.718;2023-06-10T03:20:25;14.10;;;10.38;;
42294;SDS011;27947;47.556;18.718;2023-06-10T03:22:51;16.77;;;11.70;;
42294;SDS011;27947;47.556;18.718;2023-06-10T03:25:16;16.65;;;11.45;;
42294;SDS011;27947;47.556;18.718;2023-06-10T03:27:46;15.80;;;10.95;;
42294;SDS011;27947;47.556;18.718;2023-06-10T03:30:12;13.85;;;10.40;;
42294;SDS011;27947;47.556;18.718;2023-06-10T03:32:39;15.75;;;11.68;;
42294;SDS011;27947;47.556;18.718;2023-06-10T03:35:07;16.70;;;11.95;;
42294;SDS011;27947;47.556;18.718;2023-06-10T03:37:33;15.18;;;10.73;;
42294;SDS011;27947;47.556;18.718;2023-06-10T03:39:58;16.52;;;10.68;;
42294;SDS011;27947;47.556;18.718;2023-06-10T05:00:51;19.02;;;11.13;;
42294;SDS011;27947;47.556;18.718;2023-06-10T05:03:16;14.48;;;10.80;;
42294;SDS011;27947;47.556;18.718;2023-06-10T05:05:42;13.02;;;10.07;;
42294;SDS011;27947;47.556;18.718;2023-06-10T05:08:07;12.48;;;9.30;;
42294;SDS011;27947;47.556;18.718;2023-06-10T05:10:33;14.82;;;10.13;;
42294;SDS011;27947;47.556;18.718;2023-06-10T05:12:59;22.30;;;11.38;;
42294;SDS011;27947;47.556;18.718;2023-06-10T05:15:24;14.73;;;9.77;;
42294;SDS011;27947;47.556;18.718;2023-06-10T05:17:50;15.20;;;9.98;;
42294;SDS011;27947;47.556;18.718;2023-06-10T05:20:15;13.98;;;9.13;;
42294;SDS011;27947;47.556;18.718;2023-06-10T05:22:40;12.65;;;9.20;;
42294;SDS011;27947;47.556;18.718;2023-06-10T05:25:06;14.50;;;10.27;;
42294;SDS011;27947;47.556;18.718;2023-06-10T05:27:32;17.48;;;9.88;;
42294;SDS011;27947;47.556;18.718;2023-06-10T05:29:57;16.92;;;9.52;;
42294;SDS011;27947;47.556;18.718;2023-06-10T05:32:22;12.50;;;9.13;;
42294;SDS011;27947;47.556;18.718;2023-06-10T05:34:48;14.60;;;9.00;;
42294;SDS011;27947;47.556;18.718;2023-06-10T05:37:13;11.45;;;8.10;;
42294;SDS011;27947;47.556;18.718;2023-06-10T05:39:39;10.43;;;7.55;;
42294;SDS011;27947;47.556;18.718;2023-06-10T05:42:06;7.28;;;4.55;;
42294;SDS011;27947;47.556;18.718;2023-06-10T05:44:32;5.03;;;3.78;;
42294;SDS011;27947;47.556;18.718;2023-06-10T05:46:57;6.57;;;3.63;;
42294;SDS011;27947;47.556;18.718;2023-06-10T05:49:22;4.72;;;3.40;;
42294;SDS011;27947;47.556;18.718;2023-06-10T05:51:48;6.28;;;3.50;;
42294;SDS011;27947;47.556;18.718;2023-06-10T05:54:13;3.83;;;3.40;;
42294;SDS011;27947;47.556;18.718;2023-06-10T05:56:38;4.78;;;3.42;;
42294;SDS011;27947;47.556;18.718;2023-06-10T05:59:04;5.30;;;3.83;;
42294;SDS011;27947;47.556;18.718;2023-06-10T06:01:29;6.85;;;3.53;;
42294;SDS011;27947;47.556;18.718;2023-06-10T06:03:55;5.95;;;4.15;;
42294;SDS011;27947;47.556;18.718;2023-06-10T06:06:20;6.28;;;3.92;;
42294;SDS011;27947;47.556;18.718;2023-06-10T06:08:45;4.90;;;3.75;;
42294;SDS011;27947;47.556;18.718;2023-06-10T06:11:11;6.22;;;3.70;;
42294;SDS011;27947;47.556;18.718;2023-06-10T06:13:36;4.45;;;3.60;;
42294;SDS011;27947;47.556;18.718;2023-06-10T06:16:02;5.18;;;3.72;;
42294;SDS011;27947;47.556;18.718;2023-06-10T06:18:27;5.80;;;3.90;;
42294;SDS011;27947;47.556;18.718;2023-06-10T06:20:52;5.63;;;3.40;;
42294;SDS011;27947;47.556;18.718;2023-06-10T06:23:18;6.20;;;3.33;;
42294;SDS011;27947;47.556;18.718;2023-06-10T06:25:43;4.72;;;3.08;;
42294;SDS011;27947;47.556;18.718;2023-06-10T06:28:09;4.32;;;2.60;;
42294;SDS011;27947;47.556;18.718;2023-06-10T06:30:34;3.50;;;2.90;;
42294;SDS011;27947;47.556;18.718;2023-06-10T06:33:00;4.95;;;3.28;;
42294;SDS011;27947;47.556;18.718;2023-06-10T06:35:25;6.97;;;3.17;;
42294;SDS011;27947;47.556;18.718;2023-06-10T06:37:51;3.20;;;2.72;;
42294;SDS011;27947;47.556;18.718;2023-06-10T06:40:21;3.40;;;2.70;;
42294;SDS011;27947;47.556;18.718;2023-06-10T06:42:46;4.10;;;2.78;;
42294;SDS011;27947;47.556;18.718;2023-06-10T06:45:30;3.33;;;2.38;;
42294;SDS011;27947;47.556;18.718;2023-06-10T06:47:56;3.80;;;2.28;;
42294;SDS011;27947;47.556;18.718;2023-06-10T06:50:21;3.03;;;2.42;;
42294;SDS011;27947;47.556;18.718;2023-06-10T06:52:46;2.47;;;2.28;;
42294;SDS011;27947;47.556;18.718;2023-06-10T06:55:12;3.47;;;2.50;;
42294;SDS011;27947;47.556;18.718;2023-06-10T06:57:37;3.33;;;2.38;;
42294;SDS011;27947;47.556;18.718;2023-06-10T07:00:03;4.57;;;2.30;;
42294;SDS011;27947;47.556;18.718;2023-06-10T07:02:29;6.45;;;2.30;;
42294;SDS011;27947;47.556;18.718;2023-06-10T07:04:57;8.20;;;2.50;;
42294;SDS011;27947;47.556;18.718;2023-06-10T07:07:24;4.35;;;2.60;;
42294;SDS011;27947;47.556;18.718;2023-06-10T07:09:49;3.05;;;2.33;;
42294;SDS011;27947;47.556;18.718;2023-06-10T07:12:14;4.50;;;2.55;;
42294;SDS011;27947;47.556;18.718;2023-06-10T07:14:40;4.10;;;2.30;;
42294;SDS011;27947;47.556;18.718;2023-06-10T07:17:05;4.07;;;2.40;;
42294;SDS011;27947;47.556;18.718;2023-06-10T07:19:31;6.10;;;2.55;;
42294;SDS011;27947;47.556;18.718;2023-06-10T07:21:56;5.95;;;2.85;;
42294;SDS011;27947;47.556;18.718;2023-06-10T07:24:21;3.53;;;2.35;;
42294;SDS011;27947;47.556;18.718;2023-06-10T07:26:47;3.40;;;2.65;;
42294;SDS011;27947;47.556;18.718;2023-06-10T07:29:12;6.78;;;2.60;;
42294;SDS011;27947;47.556;18.718;2023-06-10T07:31:38;5.07;;;2.65;;
42294;SDS011;27947;47.556;18.718;2023-06-10T07:34:03;5.00;;;3.17;;
42294;SDS011;27947;47.556;18.718;2023-06-10T07:36:28;3.67;;;2.90;;
42294;SDS011;27947;47.556;18.718;2023-06-10T07:38:54;3.05;;;2.75;;
42294;SDS011;27947;47.556;18.718;2023-06-10T07:41:20;7.05;;;3.83;;
42294;SDS011;27947;47.556;18.718;2023-06-10T07:43:45;5.15;;;3.28;;
42294;SDS011;27947;47.556;18.718;2023-06-10T07:46:10;5.70;;;3.90;;
42294;SDS011;27947;47.556;18.718;2023-06-10T07:48:36;5.07;;;3.33;;
42294;SDS011;27947;47.556;18.718;2023-06-10T07:51:01;4.28;;;3.45;;
42294;SDS011;27947;47.556;18.718;2023-06-10T07:53:27;7.13;;;3.60;;
42294;SDS011;27947;47.556;18.718;2023-06-10T07:55:52;15.98;;;10.77;;
42294;SDS011;27947;47.556;18.718;2023-06-10T07:58:18;6.45;;;4.28;;
42294;SDS011;27947;47.556;18.718;2023-06-10T08:00:43;8.63;;;3.67;;
42294;SDS011;27947;47.556;18.718;2023-06-10T08:03:08;15.82;;;9.98;;
42294;SDS011;27947;47.556;18.718;2023-06-10T08:05:34;13.10;;;9.43;;
42294;SDS011;27947;47.556;18.718;2023-06-10T08:07:59;16.98;;;12.82;;
42294;SDS011;27947;47.556;18.718;2023-06-10T08:10:25;18.10;;;13.48;;
42294;SDS011;27947;47.556;18.718;2023-06-10T08:12:50;12.25;;;9.05;;
42294;SDS011;27947;47.556;18.718;2023-06-10T08:15:15;9.45;;;4.50;;
42294;SDS011;27947;47.556;18.718;2023-06-10T08:17:41;8.73;;;4.28;;
42294;SDS011;27947;47.556;18.718;2023-06-10T08:20:06;7.45;;;3.30;;
42294;SDS011;27947;47.556;18.718;2023-06-10T08:22:31;4.43;;;3.53;;
42294;SDS011;27947;47.556;18.718;2023-06-10T08:24:57;5.60;;;3.50;;
42294;SDS011;27947;47.556;18.718;2023-06-10T08:27:22;4.82;;;4.05;;
42294;SDS011;27947;47.556;18.718;2023-06-10T08:29:48;10.00;;;7.68;;
42294;SDS011;27947;47.556;18.718;2023-06-10T08:32:13;20.02;;;14.63;;
42294;SDS011;27947;47.556;18.718;2023-06-10T08:34:38;15.25;;;9.85;;
42294;SDS011;27947;47.556;18.718;2023-06-10T08:37:04;7.13;;;5.10;;
42294;SDS011;27947;47.556;18.718;2023-06-10T08:39:29;9.98;;;6.03;;
42294;SDS011;27947;47.556;18.718;2023-06-10T08:42:00;6.32;;;5.68;;
42294;SDS011;27947;47.556;18.718;2023-06-10T08:44:30;5.40;;;4.20;;
42294;SDS011;27947;47.556;18.718;2023-06-10T08:46:55;6.00;;;4.97;;
42294;SDS011;27947;47.556;18.718;2023-06-10T08:49:23;6.03;;;5.20;;
42294;SDS011;27947;47.556;18.718;2023-06-10T08:51:51;6.85;;;4.90;;
42294;SDS011;27947;47.556;18.718;2023-06-10T08:54:25;7.18;;;5.35;;
42294;SDS011;27947;47.556;18.718;2023-06-10T08:56:50;9.00;;;5.60;;
42294;SDS011;27947;47.556;18.718;2023-06-10T08:59:16;5.88;;;4.80;;
42294;SDS011;27947;47.556;18.718;2023-06-10T09:01:42;6.88;;;4.85;;
42294;SDS011;27947;47.556;18.718;2023-06-10T09:04:08;5.78;;;4.55;;
42294;SDS011;27947;47.556;18.718;2023-06-10T09:06:33;6.05;;;5.45;;
42294;SDS011;27947;47.556;18.718;2023-06-10T09:08:59;6.30;;;5.57;;
42294;SDS011;27947;47.556;18.718;2023-06-10T09:11:24;6.75;;;5.90;;
42294;SDS011;27947;47.556;18.718;2023-06-10T09:13:50;6.63;;;5.38;;
42294;SDS011;27947;47.556;18.718;2023-06-10T09:16:16;5.93;;;5.30;;
42294;SDS011;27947;47.556;18.718;2023-06-10T09:18:42;7.90;;;5.85;;
42294;SDS011;27947;47.556;18.718;2023-06-10T09:21:07;6.10;;;5.50;;
42294;SDS011;27947;47.556;18.718;2023-06-10T09:23:32;7.50;;;5.55;;
42294;SDS011;27947;47.556;18.718;2023-06-10T09:25:58;6.18;;;5.10;;
42294;SDS011;27947;47.556;18.718;2023-06-10T09:28:24;7.45;;;4.38;;
42294;SDS011;27947;47.556;18.718;2023-06-10T09:30:49;6.90;;;4.40;;
42294;SDS011;27947;47.556;18.718;2023-06-10T09:33:15;5.95;;;5.35;;
42294;SDS011;27947;47.556;18.718;2023-06-10T09:35:47;6.32;;;5.18;;
42294;SDS011;27947;47.556;18.718;2023-06-10T09:38:13;6.18;;;5.05;;
42294;SDS011;27947;47.556;18.718;2023-06-10T09:40:48;5.75;;;4.80;;
42294;SDS011;27947;47.556;18.718;2023-06-10T09:43:14;6.68;;;4.60;;
42294;SDS011;27947;47.556;18.718;2023-06-10T09:45:39;4.30;;;3.75;;
42294;SDS011;27947;47.556;18.718;2023-06-10T09:48:05;5.28;;;4.07;;
42294;SDS011;27947;47.556;18.718;2023-06-10T09:50:33;11.82;;;5.50;;
42294;SDS011;27947;47.556;18.718;2023-06-10T09:52:59;4.68;;;4.13;;
42294;SDS011;27947;47.556;18.718;2023-06-10T09:55:27;5.25;;;4.75;;
42294;SDS011;27947;47.556;18.718;2023-06-10T09:57:53;5.22;;;4.47;;
42294;SDS011;27947;47.556;18.718;2023-06-10T10:00:18;5.32;;;4.40;;
42294;SDS011;27947;47.556;18.718;2023-06-10T10:02:44;4.55;;;4.05;;
42294;SDS011;27947;47.556;18.718;2023-06-10T10:05:12;6.07;;;4.10;;
42294;SDS011;27947;47.556;18.718;2023-06-10T10:07:37;5.65;;;3.75;;
42294;SDS011;27947;47.556;18.718;2023-06-10T10:10:03;4.22;;;3.75;;
42294;SDS011;27947;47.556;18.718;2023-06-10T10:12:28;6.15;;;4.10;;
42294;SDS011;27947;47.556;18.718;2023-06-10T10:14:54;6.20;;;3.60;;
42294;SDS011;27947;47.556;18.718;2023-06-10T10:17:21;4.93;;;3.30;;
42294;SDS011;27947;47.556;18.718;2023-06-10T10:19:50;6.13;;;3.42;;
42294;SDS011;27947;47.556;18.718;2023-06-10T10:22:19;4.05;;;2.90;;
42294;SDS011;27947;47.556;18.718;2023-06-10T10:24:53;5.47;;;3.47;;
42294;SDS011;27947;47.556;18.718;2023-06-10T10:27:21;4.38;;;3.55;;
42294;SDS011;27947;47.556;18.718;2023-06-10T10:29:51;4.20;;;3.33;;
42294;SDS011;27947;47.556;18.718;2023-06-10T10:32:17;3.20;;;2.90;;
42294;SDS011;27947;47.556;18.718;2023-06-10T10:34:59;4.70;;;3.05;;
42294;SDS011;27947;47.556;18.718;2023-06-10T10:37:26;7.75;;;3.05;;
42294;SDS011;27947;47.556;18.718;2023-06-10T10:39:51;4.32;;;3.03;;
42294;SDS011;27947;47.556;18.718;2023-06-10T10:42:17;5.57;;;3.17;;
42294;SDS011;27947;47.556;18.718;2023-06-10T10:44:43;4.13;;;3.28;;
42294;SDS011;27947;47.556;18.718;2023-06-10T10:47:08;4.50;;;3.00;;
42294;SDS011;27947;47.556;18.718;2023-06-10T10:49:35;5.25;;;3.45;;
42294;SDS011;27947;47.556;18.718;2023-06-10T10:52:01;4.13;;;3.25;;
42294;SDS011;27947;47.556;18.718;2023-06-10T10:54:33;5.57;;;3.10;;
42294;SDS011;27947;47.556;18.718;2023-06-10T10:57:12;3.25;;;2.80;;
42294;SDS011;27947;47.556;18.718;2023-06-10T11:02:09;3.60;;;2.85;;
42294;SDS011;27947;47.556;18.718;2023-06-10T11:04:35;4.28;;;3.00;;
42294;SDS011;27947;47.556;18.718;2023-06-10T11:07:06;3.72;;;2.85;;
42294;SDS011;27947;47.556;18.718;2023-06-10T11:09:32;4.32;;;2.80;;
42294;SDS011;27947;47.556;18.718;2023-06-10T11:11:58;7.93;;;2.95;;
42294;SDS011;27947;47.556;18.718;2023-06-10T11:14:28;2.90;;;2.60;;
42294;SDS011;27947;47.556;18.718;2023-06-10T11:16:53;4.45;;;2.85;;
42294;SDS011;27947;47.556;18.718;2023-06-10T11:22:04;4.57;;;2.60;;
42294;SDS011;27947;47.556;18.718;2023-06-10T11:24:30;3.58;;;2.83;;
42294;SDS011;27947;47.556;18.718;2023-06-10T11:27:14;5.75;;;2.97;;
42294;SDS011;27947;47.556;18.718;2023-06-10T11:29:39;4.03;;;3.50;;
42294;SDS011;27947;47.556;18.718;2023-06-10T11:32:05;4.35;;;3.50;;
42294;SDS011;27947;47.556;18.718;2023-06-10T11:34:31;6.28;;;3.33;;
42294;SDS011;27947;47.556;18.718;2023-06-10T11:36:57;4.57;;;3.03;;
42294;SDS011;27947;47.556;18.718;2023-06-10T11:39:23;3.95;;;3.40;;
42294;SDS011;27947;47.556;18.718;2023-06-10T11:41:49;3.95;;;3.15;;
42294;SDS011;27947;47.556;18.718;2023-06-10T11:44:15;3.97;;;2.60;;
42294;SDS011;27947;47.556;18.718;2023-06-10T11:46:41;2.92;;;2.60;;
42294;SDS011;27947;47.556;18.718;2023-06-10T11:49:09;4.05;;;3.00;;
42294;SDS011;27947;47.556;18.718;2023-06-10T11:51:35;3.17;;;2.65;;
42294;SDS011;27947;47.556;18.718;2023-06-10T11:54:02;6.05;;;3.00;;
42294;SDS011;27947;47.556;18.718;2023-06-10T11:56:28;4.68;;;2.53;;
42294;SDS011;27947;47.556;18.718;2023-06-10T11:58:55;6.47;;;2.67;;
42294;SDS011;27947;47.556;18.718;2023-06-10T12:01:21;5.20;;;3.17;;
42294;SDS011;27947;47.556;18.718;2023-06-10T12:03:47;3.20;;;2.60;;
42294;SDS011;27947;47.556;18.718;2023-06-10T12:06:13;4.35;;;2.60;;
42294;SDS011;27947;47.556;18.718;2023-06-10T12:08:42;2.83;;;2.53;;
42294;SDS011;27947;47.556;18.718;2023-06-10T12:11:07;3.17;;;2.47;;
42294;SDS011;27947;47.556;18.718;2023-06-10T12:13:33;3.50;;;2.47;;
42294;SDS011;27947;47.556;18.718;2023-06-10T12:16:08;3.00;;;2.60;;
42294;SDS011;27947;47.556;18.718;2023-06-10T12:18:33;3.72;;;2.92;;
42294;SDS011;27947;47.556;18.718;2023-06-10T12:20:59;3.83;;;3.08;;
42294;SDS011;27947;47.556;18.718;2023-06-10T12:23:24;3.20;;;2.90;;
42294;SDS011;27947;47.556;18.718;2023-06-10T12:25:54;8.25;;;2.97;;
42294;SDS011;27947;47.556;18.718;2023-06-10T12:28:23;3.53;;;2.88;;
42294;SDS011;27947;47.556;18.718;2023-06-10T12:30:49;4.45;;;3.15;;
42294;SDS011;27947;47.556;18.718;2023-06-10T12:33:21;2.75;;;2.50;;
42294;SDS011;27947;47.556;18.718;2023-06-10T12:35:50;4.68;;;2.78;;
42294;SDS011;27947;47.556;18.718;2023-06-10T12:38:23;4.53;;;3.20;;
42294;SDS011;27947;47.556;18.718;2023-06-10T12:40:49;3.78;;;2.25;;
42294;SDS011;27947;47.556;18.718;2023-06-10T12:43:19;4.45;;;2.55;;
42294;SDS011;27947;47.556;18.718;2023-06-10T12:45:44;4.45;;;2.45;;
42294;SDS011;27947;47.556;18.718;2023-06-10T12:48:19;3.08;;;2.42;;
42294;SDS011;27947;47.556;18.718;2023-06-10T12:50:49;3.38;;;2.83;;
42294;SDS011;27947;47.556;18.718;2023-06-10T12:53:15;3.05;;;2.72;;
42294;SDS011;27947;47.556;18.718;2023-06-10T12:55:41;7.43;;;2.38;;
42294;SDS011;27947;47.556;18.718;2023-06-10T12:58:06;3.83;;;2.60;;
42294;SDS011;27947;47.556;18.718;2023-06-10T13:00:32;4.22;;;2.80;;
42294;SDS011;27947;47.556;18.718;2023-06-10T13:03:00;5.35;;;2.92;;
42294;SDS011;27947;47.556;18.718;2023-06-10T13:05:30;3.00;;;2.70;;
42294;SDS011;27947;47.556;18.718;2023-06-10T13:07:56;3.90;;;2.53;;
42294;SDS011;27947;47.556;18.718;2023-06-10T13:10:22;3.30;;;2.67;;
42294;SDS011;27947;47.556;18.718;2023-06-10T13:12:47;2.67;;;2.38;;
42294;SDS011;27947;47.556;18.718;2023-06-10T13:15:13;4.00;;;2.85;;
42294;SDS011;27947;47.556;18.718;2023-06-10T13:17:39;2.60;;;2.40;;
42294;SDS011;27947;47.556;18.718;2023-06-10T13:20:05;3.20;;;2.20;;
42294;SDS011;27947;47.556;18.718;2023-06-10T13:22:31;3.40;;;2.38;;
42294;SDS011;27947;47.556;18.718;2023-06-10T13:25:04;5.13;;;2.60;;
42294;SDS011;27947;47.556;18.718;2023-06-10T13:27:30;3.00;;;2.70;;
42294;SDS011;27947;47.556;18.718;2023-06-10T13:29:56;2.97;;;2.40;;
42294;SDS011;27947;47.556;18.718;2023-06-10T13:32:21;2.92;;;2.63;;
42294;SDS011;27947;47.556;18.718;2023-06-10T13:34:46;4.72;;;2.67;;
42294;SDS011;27947;47.556;18.718;2023-06-10T13:37:12;3.70;;;2.75;;
42294;SDS011;27947;47.556;18.718;2023-06-10T13:39:40;3.33;;;2.97;;
42294;SDS011;27947;47.556;18.718;2023-06-10T13:42:06;4.78;;;2.60;;
42294;SDS011;27947;47.556;18.718;2023-06-10T13:44:33;6.10;;;2.85;;
42294;SDS011;27947;47.556;18.718;2023-06-10T13:47:01;4.55;;;2.65;;
42294;SDS011;27947;47.556;18.718;2023-06-10T13:49:26;3.60;;;2.33;;
42294;SDS011;27947;47.556;18.718;2023-06-10T13:51:52;2.75;;;2.50;;
42294;SDS011;27947;47.556;18.718;2023-06-10T13:54:17;4.50;;;2.63;;
42294;SDS011;27947;47.556;18.718;2023-06-10T13:56:42;3.33;;;2.55;;
42294;SDS011;27947;47.556;18.718;2023-06-10T13:59:08;3.40;;;1.80;;
42294;SDS011;27947;47.556;18.718;2023-06-10T14:01:33;2.05;;;1.85;;
42294;SDS011;27947;47.556;18.718;2023-06-10T14:03:59;4.55;;;2.00;;
42294;SDS011;27947;47.556;18.718;2023-06-10T14:06:25;1.70;;;1.60;;
42294;SDS011;27947;47.556;18.718;2023-06-10T14:08:51;1.77;;;1.52;;
42294;SDS011;27947;47.556;18.718;2023-06-10T14:11:16;2.88;;;1.65;;
42294;SDS011;27947;47.556;18.718;2023-06-10T14:13:42;2.10;;;1.65;;
42294;SDS011;27947;47.556;18.718;2023-06-10T14:16:07;2.00;;;1.80;;
42294;SDS011;27947;47.556;18.718;2023-06-10T14:18:32;2.22;;;1.83;;
42294;SDS011;27947;47.556;18.718;2023-06-10T14:20:58;2.45;;;1.83;;
42294;SDS011;27947;47.556;18.718;2023-06-10T14:23:23;3.17;;;1.88;;
42294;SDS011;27947;47.556;18.718;2023-06-10T14:25:50;2.42;;;1.85;;
42294;SDS011;27947;47.556;18.718;2023-06-10T14:28:15;2.40;;;1.98;;
42294;SDS011;27947;47.556;18.718;2023-06-10T14:30:41;3.58;;;2.08;;
42294;SDS011;27947;47.556;18.718;2023-06-10T14:33:06;2.33;;;2.13;;
42294;SDS011;27947;47.556;18.718;2023-06-10T14:35:31;2.70;;;2.30;;
42294;SDS011;27947;47.556;18.718;2023-06-10T14:37:57;2.45;;;2.25;;
42294;SDS011;27947;47.556;18.718;2023-06-10T14:40:22;3.40;;;2.28;;
42294;SDS011;27947;47.556;18.718;2023-06-10T14:42:49;2.40;;;2.20;;
42294;SDS011;27947;47.556;18.718;2023-06-10T14:45:15;4.30;;;2.22;;
42294;SDS011;27947;47.556;18.718;2023-06-10T14:47:40;3.13;;;2.50;;
42294;SDS011;27947;47.556;18.718;2023-06-10T14:50:06;2.50;;;2.30;;
42294;SDS011;27947;47.556;18.718;2023-06-10T14:52:31;2.85;;;2.15;;
42294;SDS011;27947;47.556;18.718;2023-06-10T14:54:57;3.05;;;2.75;;
42294;SDS011;27947;47.556;18.718;2023-06-10T14:57:22;4.72;;;2.55;;
42294;SDS011;27947;47.556;18.718;2023-06-10T14:59:48;3.28;;;2.97;;
42294;SDS011;27947;47.556;18.718;2023-06-10T15:02:13;3.47;;;3.08;;
42294;SDS011;27947;47.556;18.718;2023-06-10T15:04:38;4.90;;;2.65;;
42294;SDS011;27947;47.556;18.718;2023-06-10T15:07:04;2.90;;;2.63;;
42294;SDS011;27947;47.556;18.718;2023-06-10T15:09:29;6.55;;;2.90;;
42294;SDS011;27947;47.556;18.718;2023-06-10T15:11:55;4.18;;;3.13;;
42294;SDS011;27947;47.556;18.718;2023-06-10T15:14:20;2.35;;;2.15;;
42294;SDS011;27947;47.556;18.718;2023-06-10T15:16:45;2.60;;;1.90;;
42294;SDS011;27947;47.556;18.718;2023-06-10T15:19:11;9.60;;;2.15;;
42294;SDS011;27947;47.556;18.718;2023-06-10T15:21:36;2.75;;;2.33;;
42294;SDS011;27947;47.556;18.718;2023-06-10T15:24:02;2.95;;;2.58;;
42294;SDS011;27947;47.556;18.718;2023-06-10T15:26:27;3.03;;;2.50;;
42294;SDS011;27947;47.556;18.718;2023-06-10T15:28:53;3.90;;;2.30;;
42294;SDS011;27947;47.556;18.718;2023-06-10T15:31:18;5.32;;;2.67;;
42294;SDS011;27947;47.556;18.718;2023-06-10T15:33:44;4.85;;;2.28;;
42294;SDS011;27947;47.556;18.718;2023-06-10T15:36:09;5.72;;;2.42;;
42294;SDS011;27947;47.556;18.718;2023-06-10T15:38:34;4.05;;;2.38;;
42294;SDS011;27947;47.556;18.718;2023-06-10T15:41:00;2.65;;;2.22;;
42294;SDS011;27947;47.556;18.718;2023-06-10T15:43:25;4.07;;;2.30;;
42294;SDS011;27947;47.556;18.718;2023-06-10T15:45:50;3.28;;;2.70;;
42294;SDS011;27947;47.556;18.718;2023-06-10T15:48:16;4.55;;;2.80;;
42294;SDS011;27947;47.556;18.718;2023-06-10T15:50:41;4.00;;;2.72;;
42294;SDS011;27947;47.556;18.718;2023-06-10T15:53:07;4.93;;;3.25;;